| time (UTC) | temp F | wind direction | speed MPH | gust MPH | rain 1hr in | rain 24hr in | rain mn in | humidity % | barometer mb |
| 20260507064503 | 57 | 240 | 0.0 | 0.0 | 0.00 | 0.00 | 0.00 | 64 | 1013.5 |
| 20260507063101 | 56 | 304 | 0.0 | 0.0 | 0.00 | 0.00 | 0.00 | 67 | 1013.5 |
| 20260507061600 | 56 | 240 | 0.0 | 0.0 | 0.00 | 0.00 | 0.00 | 67 | 1013.5 |
| 20260507060057 | 56 | 298 | 0.0 | 0.0 | 0.00 | 0.00 | 0.00 | 67 | 1013.4 |
| 20260507054552 | 56 | 286 | 0.0 | 0.0 | 0.00 | 0.00 | 0.00 | 68 | 1013.2 |
| 20260507053115 | 54 | 242 | 0.0 | 0.0 | 0.00 | 0.00 | 0.00 | 70 | 1013.2 |
| 20260507051546 | 54 | 245 | 0.0 | 0.0 | 0.00 | 0.00 | 0.00 | 71 | 1013.0 |
| 20260507050045 | 53 | 248 | 0.0 | 0.0 | 0.00 | 0.00 | 0.00 | 72 | 1012.8 |
| 20260507044538 | 53 | 257 | 0.0 | 0.0 | 0.00 | 0.00 | 0.00 | 72 | 1012.7 |
| 20260507043037 | 52 | 261 | 0.0 | 0.0 | 0.00 | 0.00 | 0.00 | 73 | 1012.5 |
| 20260507041534 | 52 | 240 | 0.0 | 0.0 | 0.00 | 0.00 | 0.00 | 74 | 1012.3 |
| 20260507040031 | 52 | 229 | 0.0 | 0.0 | 0.00 | 0.00 | 0.00 | 74 | 1012.2 |
| 20260507034536 | 52 | 248 | 0.0 | 0.0 | 0.00 | 0.00 | 0.00 | 74 | 1012.1 |
| 20260507033038 | 52 | 267 | 0.0 | 0.0 | 0.00 | 0.00 | 0.00 | 75 | 1011.8 |
| 20260507031525 | 52 | 249 | 0.0 | 0.0 | 0.00 | 0.00 | 0.00 | 76 | 1011.7 |
| 20260507030027 | 52 | 248 | 0.0 | 0.0 | 0.00 | 0.00 | 0.00 | 76 | 1011.8 |
| 20260507024521 | 53 | 227 | 0.0 | 0.0 | 0.00 | 0.00 | 0.00 | 76 | 1011.7 |
| 20260507023025 | 53 | 255 | 0.0 | 0.0 | 0.00 | 0.00 | 0.00 | 74 | 1011.6 |
| 20260507021518 | 54 | 259 | 0.0 | 0.0 | 0.00 | 0.00 | 0.00 | 74 | 1011.6 |
| 20260507020022 | 54 | 277 | 0.0 | 0.0 | 0.00 | 0.00 | 0.00 | 73 | 1011.5 |
| 20260507014516 | 54 | 261 | 0.0 | 0.0 | 0.00 | 0.00 | 0.00 | 73 | 1011.4 |
| 20260507013013 | 54 | 263 | 0.0 | 0.0 | 0.00 | 0.00 | 0.00 | 73 | 1011.3 |
| 20260507011511 | 54 | 257 | 0.0 | 0.0 | 0.00 | 0.00 | 0.00 | 72 | 1011.3 |
| 20260507010018 | 55 | 274 | 0.0 | 0.0 | 0.00 | 0.00 | 0.00 | 71 | 1011.2 |
| 20260507004505 | 55 | 229 | 0.0 | 0.0 | 0.00 | 0.00 | 0.00 | 70 | 1011.2 |
| 20260507003002 | 55 | 248 | 0.0 | 0.0 | 0.00 | 0.00 | 0.00 | 70 | 1011.1 |
| 20260507001558 | 55 | 240 | 0.0 | 0.0 | 0.00 | 0.00 | 0.00 | 70 | 1011.0 |
| 20260507000054 | 55 | 240 | 0.0 | 0.0 | 0.00 | 0.00 | 0.00 | 71 | 1010.9 |
| 20260506234548 | 54 | 252 | 0.0 | 0.0 | 0.00 | 0.00 | 0.00 | 72 | 1011.0 |
| 20260506233047 | 54 | 279 | 0.0 | 0.0 | 0.00 | 0.00 | 0.00 | 73 | 1010.9 |
| 20260506231543 | 54 | 257 | 0.0 | 0.0 | 0.00 | 0.00 | 0.00 | 73 | 1010.9 |
| 20260506230041 | 54 | 234 | 0.0 | 0.0 | 0.00 | 0.00 | 0.00 | 74 | 1010.8 |
| 20260506224603 | 54 | 248 | 0.0 | 0.0 | 0.00 | 0.00 | 0.00 | 75 | 1010.5 |
| 20260506223037 | 54 | 259 | 0.0 | 0.0 | 0.00 | 0.00 | 0.00 | 76 | 1010.5 |
| 20260506221536 | 54 | 230 | 0.0 | 0.0 | 0.00 | 0.00 | 0.00 | 76 | 1010.4 |
| 20260506220039 | 54 | 219 | 0.0 | 0.0 | 0.00 | 0.00 | 0.00 | 76 | 1010.1 |
| 20260506214531 | 54 | 247 | 0.0 | 0.0 | 0.00 | 0.00 | 0.00 | 76 | 1010.0 |
| 20260506213032 | 54 | 277 | 0.0 | 0.0 | 0.00 | 0.00 | 0.00 | 77 | 1010.0 |
| 20260506211532 | 55 | 251 | 0.0 | 0.0 | 0.00 | 0.00 | 0.00 | 76 | 1009.9 |
| 20260506210130 | 56 | 237 | 0.0 | 0.0 | 0.00 | 0.00 | 0.00 | 77 | 1009.8 |
| 20260506204527 | 56 | 254 | 0.0 | 0.0 | 0.00 | 0.00 | 0.00 | 77 | 1009.6 |
| 20260506203028 | 56 | 236 | 0.0 | 0.0 | 0.00 | 0.00 | 0.00 | 77 | 1009.3 |
| 20260506201524 | 57 | 291 | 0.0 | 0.0 | 0.00 | 0.00 | 0.00 | 77 | 1009.0 |
| 20260506200123 | 58 | 241 | 0.0 | 0.0 | 0.00 | 0.00 | 0.00 | 77 | 1008.7 |
| 20260506194522 | 58 | 265 | 0.0 | 0.0 | 0.00 | 0.00 | 0.00 | 77 | 1008.3 |
| 20260506193021 | 59 | 293 | 0.0 | 0.0 | 0.00 | 0.00 | 0.00 | 77 | 1008.1 |
| 20260506191520 | 59 | 225 | 0.0 | 0.0 | 0.00 | 0.00 | 0.00 | 75 | 1007.6 |
| 20260506190025 | 59 | 256 | 0.0 | 0.0 | 0.00 | 0.00 | 0.00 | 72 | 1007.2 |
| 20260506184518 | 60 | 238 | 0.0 | 0.0 | 0.00 | 0.06 | 0.00 | 70 | 1006.7 |
| 20260506183020 | 60 | 259 | 0.0 | 0.0 | 0.00 | 0.06 | 0.00 | 69 | 1006.2 |
| 20260506181517 | 60 | 236 | 0.0 | 0.0 | 0.00 | 0.06 | 0.00 | 69 | 1005.7 |
| 20260506180016 | 61 | 288 | 0.0 | 0.0 | 0.00 | 0.06 | 0.00 | 66 | 1004.8 |
| 20260506174515 | 66 | 254 | 0.0 | 0.0 | 0.00 | 0.09 | 0.00 | 54 | 1004.5 |
| 20260506173015 | 70 | 204 | 0.0 | 0.0 | 0.00 | 0.09 | 0.00 | 47 | 1002.5 |
| 20260506171520 | 71 | 184 | 0.0 | 0.0 | 0.00 | 0.09 | 0.00 | 47 | 1001.8 |
| 20260506170015 | 73 | 126 | 0.0 | 0.0 | 0.00 | 0.09 | 0.00 | 43 | 1001.5 |
| 20260506164513 | 75 | 287 | 0.0 | 0.0 | 0.00 | 0.09 | 0.00 | 42 | 1001.4 |
| 20260506163011 | 76 | 210 | 0.0 | 0.0 | 0.00 | 0.09 | 0.00 | 42 | 1002.1 |
| 20260506161509 | 75 | 155 | 0.0 | 0.0 | 0.00 | 0.09 | 0.00 | 42 | 1002.1 |
| 20260506160010 | 75 | 175 | 0.0 | 0.0 | 0.00 | 0.09 | 0.00 | 44 | 1002.1 |
| 20260506154506 | 76 | 281 | 0.0 | 0.0 | 0.00 | 0.09 | 0.00 | 42 | 1002.4 |
| 20260506153009 | 75 | 196 | 0.0 | 0.0 | 0.00 | 0.09 | 0.00 | 43 | 1002.3 |
| 20260506151504 | 74 | 80 | 0.0 | 0.0 | 0.00 | 0.09 | 0.00 | 45 | 1002.6 |
| 20260506150003 | 74 | 156 | 0.0 | 0.0 | 0.00 | 0.09 | 0.00 | 46 | 1002.8 |
| 20260506144502 | 75 | 161 | 0.0 | 0.0 | 0.00 | 0.09 | 0.00 | 45 | 1002.7 |
| 20260506143002 | 76 | 77 | 0.0 | 0.0 | 0.00 | 0.09 | 0.00 | 49 | 1002.8 |
| 20260506141559 | 75 | 91 | 0.0 | 0.0 | 0.00 | 0.09 | 0.00 | 48 | 1003.2 |
| 20260506140058 | 76 | 53 | 0.0 | 0.0 | 0.00 | 0.09 | 0.00 | 46 | 1003.1 |
| 20260506134600 | 77 | 27 | 0.0 | 0.0 | 0.00 | 0.09 | 0.00 | 45 | 1003.4 |
| 20260506133058 | 76 | 24 | 0.0 | 0.0 | 0.00 | 0.09 | 0.00 | 49 | 1003.6 |
| 20260506131550 | 74 | 60 | 0.0 | 0.0 | 0.00 | 0.09 | 0.00 | 48 | 1003.8 |
| 20260506130051 | 75 | 86 | 0.0 | 0.0 | 0.00 | 0.09 | 0.00 | 49 | 1004.2 |
| 20260506124546 | 76 | 30 | 0.0 | 0.0 | 0.00 | 0.09 | 0.00 | 47 | 1004.2 |
| 20260506123043 | 74 | 100 | 0.0 | 0.0 | 0.00 | 0.09 | 0.00 | 51 | 1004.5 |
| 20260506121541 | 74 | 57 | 0.0 | 0.0 | 0.00 | 0.09 | 0.00 | 53 | 1004.7 |
| 20260506120039 | 74 | 57 | 0.0 | 0.0 | 0.00 | 0.09 | 0.00 | 54 | 1004.9 |
| 20260506114536 | 73 | 69 | 0.0 | 0.0 | 0.00 | 0.09 | 0.00 | 54 | 1005.2 |
| 20260506113034 | 73 | 16 | 0.0 | 0.0 | 0.00 | 0.09 | 0.00 | 55 | 1005.4 |
| 20260506111531 | 72 | 47 | 0.0 | 0.0 | 0.00 | 0.09 | 0.00 | 55 | 1005.7 |
| 20260506110028 | 71 | 131 | 0.0 | 0.0 | 0.00 | 0.09 | 0.00 | 59 | 1006.0 |
| 20260506104527 | 70 | 117 | 0.0 | 0.0 | 0.00 | 0.09 | 0.00 | 60 | 1006.1 |
| 20260506103024 | 68 | 49 | 0.0 | 0.0 | 0.00 | 0.09 | 0.00 | 63 | 1006.4 |
| 20260506101516 | 66 | 58 | 0.0 | 0.0 | 0.00 | 0.09 | 0.00 | 65 | 1006.6 |
| 20260506100013 | 66 | 69 | 0.0 | 0.0 | 0.00 | 0.09 | 0.00 | 67 | 1006.8 |
| 20260506094509 | 66 | 69 | 0.0 | 0.0 | 0.00 | 0.09 | 0.00 | 65 | 1007.0 |
| 20260506093009 | 66 | 71 | 0.0 | 0.0 | 0.00 | 0.09 | 0.00 | 65 | 1007.1 |
| 20260506091507 | 65 | 33 | 0.0 | 0.0 | 0.00 | 0.09 | 0.00 | 65 | 1007.1 |
| 20260506090008 | 64 | 66 | 0.0 | 0.0 | 0.00 | 0.09 | 0.00 | 65 | 1007.1 |
| 20260506084502 | 64 | 42 | 0.0 | 0.0 | 0.00 | 0.09 | 0.00 | 69 | 1007.2 |
| 20260506083106 | 64 | 80 | 0.0 | 0.0 | 0.00 | 0.09 | 0.00 | 69 | 1007.5 |
| 20260506081558 | 63 | 72 | 0.0 | 0.0 | 0.00 | 0.09 | 0.00 | 70 | 1007.4 |
| 20260506080108 | 63 | 61 | 0.0 | 0.0 | 0.00 | 0.09 | 0.00 | 70 | 1007.5 |
| 20260506073103 | 61 | 73 | 0.0 | 0.0 | 0.00 | 0.09 | 0.00 | 72 | 1007.9 |
| 20260506071548 | 60 | 64 | 0.0 | 0.0 | 0.00 | 0.09 | 0.00 | 73 | 1007.9 |